»·PEaware :: N623JB KSAN-KLAS

N623JB :: KSAN-KLAS

FLIGHT INFORMATION

Flight Status: Arrived
Operator: Privately registered:
United States
More flights under this callsign
Pilot: Jonathan B. (32222)
Aircraft: Cessna 525C Citation CJ4
(C25C)
More flights by this aircraft type
Origin: KSAN San Diego Intl-Lindbergh
United States
Destination: KLAS McCarran Intl
United States
More flights between these airports :: More routes between these airports
Route: PADRZ2 CHKNN SEBBY YELAH MISEN KEPEC6
File this flight plan on PilotEdge
Remarks:
Altitude:
(Current/Filed)
21,000ft
Speed:
(Current/Filed)
350kts
Departed: 27-Jan-21 06:02 PM
Arrived: 27-Jan-21 07:03 PM
Distance/Time
Traveled:
225nm/1:01
Distance/Time
To Go:
Arrived

Flight Plot

Page will automatically refresh every two minutes.

Flight plan parsing failed; only flown route is shown


Map Options




Map Legend


Flown Route
Filed Route
Departure Airport
Arrival Airport
Navaid (VOR, NDB)
Fix

Horizontal Profiles

Position Reports

Time Latitude Longitude Heading Altitude Ground
Speed
27-Jan-21 17:28 32.733495 -117.178669 18 14ft 0kts
27-Jan-21 17:30 32.733495 -117.178669 18 14ft 0kts
27-Jan-21 17:30 32.733495 -117.178669 18 14ft 0kts
27-Jan-21 17:31 32.733495 -117.178669 18 14ft 0kts
27-Jan-21 17:32 32.733495 -117.178669 18 14ft 0kts
27-Jan-21 17:33 32.733495 -117.178669 18 14ft 0kts
27-Jan-21 17:34 32.733495 -117.178669 18 14ft 0kts
27-Jan-21 17:35 32.733495 -117.178669 18 14ft 0kts
27-Jan-21 17:36 32.733495 -117.178669 18 14ft 0kts
27-Jan-21 17:37 32.733495 -117.178669 18 14ft 0kts
27-Jan-21 17:38 32.733495 -117.178669 18 14ft 0kts
27-Jan-21 17:39 32.733495 -117.178669 18 14ft 0kts
27-Jan-21 17:40 32.733495 -117.178669 18 14ft 0kts
27-Jan-21 17:41 32.733495 -117.178669 18 14ft 0kts
27-Jan-21 17:42 32.733495 -117.178669 18 14ft 0kts
27-Jan-21 17:43 32.733495 -117.178669 18 14ft 0kts
27-Jan-21 17:44 32.733495 -117.178669 18 14ft 0kts
27-Jan-21 17:45 32.733495 -117.178669 18 14ft 0kts
27-Jan-21 17:46 32.733495 -117.178669 18 14ft 0kts
27-Jan-21 17:47 32.733495 -117.178669 18 14ft 0kts
27-Jan-21 17:48 32.733495 -117.178669 18 14ft 0kts
27-Jan-21 17:49 32.733495 -117.178669 18 14ft 0kts
27-Jan-21 17:50 32.733398 -117.178708 18 14ft 0kts
27-Jan-21 17:51 32.733398 -117.178708 18 14ft 0kts
27-Jan-21 17:52 32.733398 -117.178708 18 14ft 0kts
27-Jan-21 17:53 32.733398 -117.178708 18 14ft 0kts
27-Jan-21 17:54 32.733398 -117.178708 18 14ft 0kts
27-Jan-21 17:55 32.733398 -117.178708 18 14ft 0kts
27-Jan-21 17:56 32.733486 -117.179182 252 15ft 7kts
27-Jan-21 17:57 32.731670 -117.177072 104 14ft 17kts
27-Jan-21 17:58 32.731012 -117.175535 136 13ft 0kts
27-Jan-21 17:59 32.731012 -117.175535 136 13ft 0kts
27-Jan-21 18:00 32.730796 -117.175378 153 13ft 10kts
27-Jan-21 18:01 32.737580 -117.203361 297 1464ft 168kts
27-Jan-21 18:02 32.764301 -117.251218 302 5493ft 183kts
27-Jan-21 18:03 32.793264 -117.304619 295 10299ft 198kts
27-Jan-21 18:04 32.832450 -117.368990 303 11802ft 266kts
27-Jan-21 18:05 32.877497 -117.438577 301 13223ft 264kts
27-Jan-21 18:06 32.922117 -117.507812 301 14603ft 262kts
27-Jan-21 18:07 32.968612 -117.580290 301 14956ft 291kts
27-Jan-21 18:08 33.019234 -117.659094 301 15822ft 297kts
27-Jan-21 18:09 33.069404 -117.736025 307 17309ft 295kts
27-Jan-21 18:10 33.132811 -117.798380 312 18799ft 292kts
27-Jan-21 18:11 33.193628 -117.861316 311 20280ft 292kts
27-Jan-21 18:12 33.259557 -117.925279 312 21105ft 323kts
27-Jan-21 18:13 33.333048 -117.997309 313 21155ft 358kts
27-Jan-21 18:14 33.412770 -118.075295 314 21137ft 379kts
27-Jan-21 18:15 33.490144 -118.151061 312 21115ft 333kts
27-Jan-21 18:16 33.557777 -118.217816 311 21113ft 304kts
27-Jan-21 18:17 33.634072 -118.269131 328 21139ft 326kts
27-Jan-21 18:18 33.718406 -118.314517 326 21164ft 338kts
27-Jan-21 18:19 33.808497 -118.279975 60 21152ft 405kts
27-Jan-21 18:20 33.861661 -118.163764 46 21157ft 403kts
27-Jan-21 18:21 33.927737 -118.054340 52 21147ft 405kts
27-Jan-21 18:22 33.992485 -117.943079 50 21146ft 405kts
27-Jan-21 18:23 34.057227 -117.833353 51 21175ft 402kts
27-Jan-21 18:24 34.124777 -117.726088 45 21148ft 399kts
27-Jan-21 18:25 34.194640 -117.624282 48 21111ft 390kts
27-Jan-21 18:26 34.263789 -117.523231 46 21197ft 384kts
27-Jan-21 18:27 34.330821 -117.424632 47 21213ft 377kts
27-Jan-21 18:28 34.397807 -117.325678 46 21086ft 382kts
27-Jan-21 18:29 34.465039 -117.226485 47 21234ft 375kts
27-Jan-21 18:30 34.530496 -117.129286 46 21158ft 371kts
27-Jan-21 18:31 34.596190 -117.031567 47 21088ft 374kts
27-Jan-21 18:32 34.661309 -116.934658 46 21225ft 367kts
27-Jan-21 18:33 34.725934 -116.838072 47 21234ft 368kts
27-Jan-21 18:34 34.790071 -116.741704 47 21222ft 365kts
27-Jan-21 18:35 34.854796 -116.644601 46 21226ft 368kts
27-Jan-21 18:36 34.934116 -116.568809 33 21079ft 368kts
27-Jan-21 18:37 35.013168 -116.491368 33 21049ft 362kts
27-Jan-21 18:38 35.093390 -116.413225 34 21062ft 374kts
27-Jan-21 18:39 35.169189 -116.322387 43 21065ft 387kts
27-Jan-21 18:40 35.242529 -116.229249 42 20661ft 375kts
27-Jan-21 18:41 35.313433 -116.139752 43 19118ft 354kts
27-Jan-21 18:43 35.380549 -116.055341 42 17822ft 339kts
27-Jan-21 18:44 35.445688 -115.972724 43 16618ft 336kts
27-Jan-21 18:45 35.511433 -115.889716 43 15388ft 341kts
27-Jan-21 18:46 35.577705 -115.805202 44 14095ft 344kts
27-Jan-21 18:47 35.643092 -115.722242 45 13136ft 325kts
27-Jan-21 18:48 35.704046 -115.644293 47 12984ft 319kts
27-Jan-21 18:49 35.770189 -115.568491 15 13006ft 334kts
27-Jan-21 18:50 35.858995 -115.570212 2 13045ft 318kts
27-Jan-21 18:51 35.944854 -115.564544 358 13039ft 302kts
27-Jan-21 18:52 35.995553 -115.502143 98 12399ft 293kts
27-Jan-21 18:53 36.021049 -115.408582 72 11067ft 273kts
27-Jan-21 18:54 36.028752 -115.321507 102 10375ft 260kts
27-Jan-21 18:55 36.020653 -115.231193 98 9225ft 265kts
27-Jan-21 18:56 36.014495 -115.145189 98 8409ft 249kts
27-Jan-21 18:57 36.021740 -115.071238 27 8013ft 209kts
27-Jan-21 18:58 36.069497 -115.057445 9 7338ft 165kts
27-Jan-21 18:59 36.112765 -115.054353 1 6272ft 147kts
27-Jan-21 18:59 36.135628 -115.074165 262 4745ft 146kts
27-Jan-21 19:01 36.132259 -115.128362 254 3271ft 128kts
27-Jan-21 19:01 36.111015 -115.150101 205 2405ft 114kts
27-Jan-21 19:03 36.089365 -115.163335 280 2142ft 16kts
27-Jan-21 19:03 36.089330 -115.163610 257 2142ft 0kts
27-Jan-21 19:04 36.089330 -115.163610 257 2142ft 0kts
27-Jan-21 19:05 36.088248 -115.165372 206 2147ft 12kts
27-Jan-21 19:06 36.086340 -115.166462 34 2153ft 10kts
27-Jan-21 19:07 36.091361 -115.163573 27 2129ft 24kts
27-Jan-21 19:08 36.092524 -115.162849 25 2121ft 0kts
27-Jan-21 19:09 36.093006 -115.162641 18 2118ft 10kts
27-Jan-21 19:10 36.097004 -115.160351 19 2102ft 19kts
27-Jan-21 19:11 36.096583 -115.162525 251 2104ft 6kts
27-Jan-21 19:12 36.096308 -115.162867 184 2105ft 0kts
27-Jan-21 19:13 36.096308 -115.162867 184 2105ft 0kts

Navigation Log

Ident Type
Flight plan parsing failed, navigation log unavailable